Time;durP1;ratioP1;P1;durP2;ratioP2;P2;SDS_P1;SDS_P2;PMS_P1;PMS_P2;Temp;Humidity;BMP_temperature;BMP_pressure;BME280_temperature;BME280_humidity;BME280_pressure;Samples;Min_cycle;Max_cycle;Signal;HPM_P1;HPM_P2
2022/06/07 00:00:58;;;;;;;10.40;3.73;;;;;;;;;;5012270;28;20032;-54
2022/06/07 00:03:24;;;;;;;7.80;4.07;;;;;;;;;;5013295;28;20273;-53
2022/06/07 00:05:49;;;;;;;7.03;3.35;;;;;;;;;;5012437;28;20328;-52
2022/06/07 00:08:16;;;;;;;6.70;3.78;;;;;;;;;;5015107;28;20092;-53
2022/06/07 00:10:42;;;;;;;6.05;3.80;;;;;;;;;;5022328;28;20472;-53
2022/06/07 00:13:07;;;;;;;6.40;3.78;;;;;;;;;;5018550;28;20076;-52
2022/06/07 00:15:32;;;;;;;6.93;3.20;;;;;;;;;;5011609;28;20084;-52
2022/06/07 00:17:58;;;;;;;8.25;3.50;;;;;;;;;;5020753;28;20071;-52
2022/06/07 00:20:23;;;;;;;5.13;3.33;;;;;;;;;;5022181;28;20072;-54
2022/06/07 00:22:48;;;;;;;7.03;3.63;;;;;;;;;;5019119;28;20036;-54
2022/06/07 00:25:13;;;;;;;6.33;3.90;;;;;;;;;;5018417;28;20301;-54
2022/06/07 00:27:39;;;;;;;8.50;3.30;;;;;;;;;;5011634;28;20279;-52
2022/06/07 00:30:04;;;;;;;6.65;3.60;;;;;;;;;;5015676;28;20061;-52
2022/06/07 00:32:30;;;;;;;6.50;3.78;;;;;;;;;;5020661;28;20057;-54
2022/06/07 00:34:55;;;;;;;5.60;3.47;;;;;;;;;;5005996;28;20037;-52
2022/06/07 00:37:20;;;;;;;8.50;3.77;;;;;;;;;;5021726;28;20482;-54
2022/06/07 00:39:45;;;;;;;8.03;3.63;;;;;;;;;;5019081;28;20275;-52
2022/06/07 00:42:11;;;;;;;7.03;3.63;;;;;;;;;;5024458;28;20256;-53
2022/06/07 00:44:37;;;;;;;5.75;3.78;;;;;;;;;;5015473;28;22057;-53
2022/06/07 00:47:08;;;;;;;6.70;3.45;;;;;;;;;;5022877;28;20018;-53
2022/06/07 00:49:35;;;;;;;7.80;3.63;;;;;;;;;;5015715;28;20014;-53
2022/06/07 00:52:00;;;;;;;9.43;3.65;;;;;;;;;;5023192;28;20096;-52
2022/06/07 00:54:27;;;;;;;6.57;4.22;;;;;;;;;;5018209;28;20116;-52
2022/06/07 00:56:52;;;;;;;6.63;3.22;;;;;;;;;;5023892;28;20075;-52
2022/06/07 00:59:17;;;;;;;5.70;3.20;;;;;;;;;;5022009;28;20026;-52
2022/06/07 01:01:42;;;;;;;5.33;3.83;;;;;;;;;;5017830;28;20340;-53
2022/06/07 01:04:08;;;;;;;7.10;3.28;;;;;;;;;;5026263;28;20279;-54
2022/06/07 01:12:01;;;;;;;9.23;3.53;;;;;;;;;;5023455;28;20060;-54
2022/06/07 01:14:26;;;;;;;9.07;3.78;;;;;;;;;;5023391;28;20041;-54
2022/06/07 01:16:51;;;;;;;6.00;3.57;;;;;;;;;;5024620;28;20024;-56
2022/06/07 01:19:16;;;;;;;5.72;3.58;;;;;;;;;;5023352;28;20558;-54
2022/06/07 01:21:43;;;;;;;6.27;3.40;;;;;;;;;;5021000;28;20056;-54
2022/06/07 01:24:08;;;;;;;7.25;3.70;;;;;;;;;;5015852;28;20303;-54
2022/06/07 01:26:33;;;;;;;6.13;3.50;;;;;;;;;;5025044;28;20519;-55
2022/06/07 01:28:58;;;;;;;6.30;3.77;;;;;;;;;;5022272;28;20026;-55
2022/06/07 01:31:24;;;;;;;5.82;3.63;;;;;;;;;;5021491;28;20834;-54
2022/06/07 01:33:50;;;;;;;5.28;3.50;;;;;;;;;;5016243;28;20481;-54
2022/06/07 01:36:16;;;;;;;6.80;3.70;;;;;;;;;;5007760;28;20048;-52
2022/06/07 01:38:42;;;;;;;5.50;3.17;;;;;;;;;;5022980;28;20010;-54
2022/06/07 01:43:51;;;;;;;5.65;3.33;;;;;;;;;;5011752;28;20039;-52
2022/06/07 01:46:16;;;;;;;4.65;3.53;;;;;;;;;;5020559;28;20421;-52
2022/06/07 01:48:42;;;;;;;4.27;3.10;;;;;;;;;;5026308;28;20892;-53
2022/06/07 01:51:08;;;;;;;5.33;3.17;;;;;;;;;;5025714;28;20859;-52
2022/06/07 01:53:34;;;;;;;5.25;3.80;;;;;;;;;;5013257;28;20288;-50
2022/06/07 01:56:03;;;;;;;5.20;3.17;;;;;;;;;;5015939;28;20033;-52
2022/06/07 01:58:28;;;;;;;6.10;3.60;;;;;;;;;;5021237;28;20048;-51
2022/06/07 02:00:54;;;;;;;4.63;2.90;;;;;;;;;;5010151;28;20018;-51
2022/06/07 02:03:19;;;;;;;5.03;3.42;;;;;;;;;;5017036;28;20478;-51
2022/06/07 02:05:53;;;;;;;6.90;3.30;;;;;;;;;;5014704;28;20052;-51
2022/06/07 02:08:18;;;;;;;5.28;3.22;;;;;;;;;;5013909;28;20072;-51
2022/06/07 02:10:44;;;;;;;5.47;3.00;;;;;;;;;;5020473;28;20056;-51
2022/06/07 02:13:09;;;;;;;3.72;2.97;;;;;;;;;;5023529;28;20264;-52
2022/06/07 02:15:34;;;;;;;4.23;2.90;;;;;;;;;;5017497;28;21798;-53
2022/06/07 02:17:59;;;;;;;4.28;3.60;;;;;;;;;;5018394;28;20272;-52
2022/06/07 02:20:25;;;;;;;5.93;3.67;;;;;;;;;;5023675;28;20510;-50
2022/06/07 02:22:50;;;;;;;4.97;3.50;;;;;;;;;;5016611;28;20268;-50
2022/06/07 02:25:15;;;;;;;4.40;3.17;;;;;;;;;;5012106;28;20128;-50
2022/06/07 02:27:41;;;;;;;4.27;3.33;;;;;;;;;;5019477;28;20288;-51
2022/06/07 02:30:06;;;;;;;6.43;3.30;;;;;;;;;;5009728;28;20829;-51
2022/06/07 02:32:33;;;;;;;4.05;2.90;;;;;;;;;;5009791;28;20288;-51
2022/06/07 02:34:58;;;;;;;6.47;3.25;;;;;;;;;;5013722;28;20033;-51
2022/06/07 02:37:24;;;;;;;5.30;3.78;;;;;;;;;;5010012;28;20088;-50
2022/06/07 02:39:49;;;;;;;6.28;3.20;;;;;;;;;;5016133;28;20025;-50
2022/06/07 02:42:15;;;;;;;5.18;2.85;;;;;;;;;;5018475;28;20026;-50
2022/06/07 02:44:40;;;;;;;5.10;3.10;;;;;;;;;;5018354;28;20009;-50
2022/06/07 02:47:06;;;;;;;7.07;3.38;;;;;;;;;;5021540;28;20172;-50
2022/06/07 02:49:32;;;;;;;6.10;3.50;;;;;;;;;;5014877;28;20017;-49
2022/06/07 02:51:57;;;;;;;4.38;3.40;;;;;;;;;;5018743;28;20902;-51
2022/06/07 02:54:22;;;;;;;5.30;3.10;;;;;;;;;;5006699;28;20061;-51
2022/06/07 02:56:48;;;;;;;8.60;3.35;;;;;;;;;;5013310;28;20331;-49
2022/06/07 02:59:13;;;;;;;5.13;3.78;;;;;;;;;;5014576;28;20025;-51
2022/06/07 03:01:38;;;;;;;4.45;2.92;;;;;;;;;;5010803;28;20083;-51
2022/06/07 03:04:03;;;;;;;4.90;3.70;;;;;;;;;;5024661;28;20116;-50
2022/06/07 03:06:30;;;;;;;6.93;3.25;;;;;;;;;;5021955;28;20845;-50
2022/06/07 03:08:55;;;;;;;5.35;3.38;;;;;;;;;;5010920;28;21497;-51
2022/06/07 03:11:21;;;;;;;6.13;3.60;;;;;;;;;;5009596;28;20021;-49
2022/06/07 03:13:46;;;;;;;5.75;3.28;;;;;;;;;;5010450;28;20275;-51
2022/06/07 03:16:11;;;;;;;6.55;3.17;;;;;;;;;;5018324;28;20855;-50
2022/06/07 03:18:37;;;;;;;5.38;3.10;;;;;;;;;;5015626;28;20045;-49
2022/06/07 03:21:02;;;;;;;5.60;3.50;;;;;;;;;;5013236;28;20586;-49
2022/06/07 03:23:27;;;;;;;5.85;2.88;;;;;;;;;;5010523;28;20257;-51
2022/06/07 03:26:01;;;;;;;4.00;3.23;;;;;;;;;;5005805;28;20076;-50
2022/06/07 03:28:26;;;;;;;5.93;3.45;;;;;;;;;;5007201;28;20275;-51
2022/06/07 03:30:51;;;;;;;8.33;3.50;;;;;;;;;;5016959;28;20030;-50
2022/06/07 03:33:17;;;;;;;6.17;3.00;;;;;;;;;;5013183;28;20291;-50
2022/06/07 03:35:42;;;;;;;7.15;3.15;;;;;;;;;;5020695;28;20916;-50
2022/06/07 03:38:07;;;;;;;5.27;3.60;;;;;;;;;;5010981;28;20164;-51
2022/06/07 03:40:45;;;;;;;5.17;3.10;;;;;;;;;;5021199;28;20848;-52
2022/06/07 03:43:11;;;;;;;5.60;3.25;;;;;;;;;;5017681;28;20264;-52
2022/06/07 03:45:36;;;;;;;6.68;3.28;;;;;;;;;;5020834;28;20052;-51
2022/06/07 03:48:02;;;;;;;5.67;3.50;;;;;;;;;;5012477;28;20026;-51
2022/06/07 03:50:27;;;;;;;5.68;3.22;;;;;;;;;;5013973;28;20371;-51
2022/06/07 03:52:52;;;;;;;7.13;3.58;;;;;;;;;;5018272;28;20108;-53
2022/06/07 03:55:17;;;;;;;6.23;3.10;;;;;;;;;;5014405;28;20091;-51
2022/06/07 03:57:43;;;;;;;4.80;3.00;;;;;;;;;;5015531;28;20276;-51
2022/06/07 04:00:08;;;;;;;6.65;3.60;;;;;;;;;;5017940;28;20272;-51
2022/06/07 04:02:33;;;;;;;8.70;4.10;;;;;;;;;;5020036;28;20013;-51
2022/06/07 04:04:59;;;;;;;4.60;3.42;;;;;;;;;;5026250;28;20484;-49
2022/06/07 04:10:08;;;;;;;6.43;3.30;;;;;;;;;;5023039;28;20032;-51
2022/06/07 04:12:33;;;;;;;6.50;3.75;;;;;;;;;;5020011;28;20112;-51
2022/06/07 04:14:58;;;;;;;4.90;3.13;;;;;;;;;;5020342;28;20034;-50
2022/06/07 04:17:24;;;;;;;7.27;3.80;;;;;;;;;;5013236;28;20364;-49
2022/06/07 04:19:49;;;;;;;9.48;3.60;;;;;;;;;;5025073;28;20260;-52
2022/06/07 04:22:14;;;;;;;5.73;3.60;;;;;;;;;;5022951;28;20494;-50
2022/06/07 04:24:40;;;;;;;7.47;3.67;;;;;;;;;;5018687;28;20325;-51
2022/06/07 04:27:05;;;;;;;6.05;3.85;;;;;;;;;;5014823;28;20272;-49
2022/06/07 04:29:30;;;;;;;5.20;3.23;;;;;;;;;;5023130;28;20469;-50
2022/06/07 04:31:56;;;;;;;7.07;3.73;;;;;;;;;;5026073;28;20292;-50
2022/06/07 04:34:22;;;;;;;6.72;4.13;;;;;;;;;;5015289;28;20314;-52
2022/06/07 04:36:47;;;;;;;8.57;4.37;;;;;;;;;;5021381;28;20026;-52
2022/06/07 04:39:12;;;;;;;9.43;4.78;;;;;;;;;;5013971;28;20334;-49
2022/06/07 04:41:37;;;;;;;12.10;4.60;;;;;;;;;;5013824;28;20030;-49
2022/06/07 04:44:03;;;;;;;8.30;5.00;;;;;;;;;;5002574;28;20049;-50
2022/06/07 04:46:28;;;;;;;12.40;5.13;;;;;;;;;;5021532;28;20268;-52
2022/06/07 04:48:54;;;;;;;8.98;5.05;;;;;;;;;;5021167;28;20035;-53
2022/06/07 04:51:19;;;;;;;9.95;5.65;;;;;;;;;;5020154;28;20087;-53
2022/06/07 04:53:44;;;;;;;7.50;5.17;;;;;;;;;;5011258;28;20155;-51
2022/06/07 04:56:16;;;;;;;10.65;5.45;;;;;;;;;;5008828;28;20305;-51
2022/06/07 04:58:41;;;;;;;9.50;5.38;;;;;;;;;;5003087;28;20547;-52
2022/06/07 05:01:07;;;;;;;7.88;6.05;;;;;;;;;;5023346;28;20029;-51
2022/06/07 05:03:33;;;;;;;8.32;5.55;;;;;;;;;;5014468;28;20037;-53
2022/06/07 05:05:58;;;;;;;9.83;6.40;;;;;;;;;;5021719;28;20048;-52
2022/06/07 05:08:23;;;;;;;8.30;6.00;;;;;;;;;;5018459;28;20288;-52
2022/06/07 05:10:48;;;;;;;8.73;6.10;;;;;;;;;;5017540;28;20025;-51
2022/06/07 05:13:14;;;;;;;11.68;6.22;;;;;;;;;;5020585;28;21004;-51
2022/06/07 05:15:39;;;;;;;11.23;6.83;;;;;;;;;;5019774;28;20120;-52
2022/06/07 05:18:04;;;;;;;9.90;6.30;;;;;;;;;;5022894;28;20299;-52
2022/06/07 05:20:29;;;;;;;12.40;6.72;;;;;;;;;;5026727;28;20268;-52
2022/06/07 05:22:55;;;;;;;13.15;7.05;;;;;;;;;;5014955;28;20024;-52
2022/06/07 05:25:20;;;;;;;13.00;6.43;;;;;;;;;;5022053;28;20128;-51
2022/06/07 05:27:46;;;;;;;11.73;6.50;;;;;;;;;;5014313;28;20276;-52
2022/06/07 05:30:12;;;;;;;10.93;6.50;;;;;;;;;;5003098;28;20040;-52
2022/06/07 05:32:37;;;;;;;13.57;7.00;;;;;;;;;;5005882;28;20045;-52
2022/06/07 05:35:05;;;;;;;14.20;6.20;;;;;;;;;;5016071;28;20037;-53
2022/06/07 05:37:30;;;;;;;11.57;7.05;;;;;;;;;;5016582;28;20496;-51
2022/06/07 05:39:55;;;;;;;9.93;6.78;;;;;;;;;;5022072;28;20554;-52
2022/06/07 05:42:21;;;;;;;11.70;7.10;;;;;;;;;;5022869;28;20025;-52
2022/06/07 05:44:46;;;;;;;13.82;7.18;;;;;;;;;;5020243;28;20049;-53
2022/06/07 05:47:12;;;;;;;13.27;7.43;;;;;;;;;;5017673;28;20125;-54
2022/06/07 05:49:37;;;;;;;13.68;7.72;;;;;;;;;;4997510;28;20277;-52
2022/06/07 05:52:03;;;;;;;14.02;8.07;;;;;;;;;;5018816;28;20473;-53
2022/06/07 05:54:29;;;;;;;13.82;8.30;;;;;;;;;;5003265;28;20049;-51
2022/06/07 05:56:54;;;;;;;12.32;7.97;;;;;;;;;;5018583;28;20005;-53
2022/06/07 05:59:19;;;;;;;14.68;8.40;;;;;;;;;;5020416;28;20021;-52
2022/06/07 06:01:45;;;;;;;13.07;8.27;;;;;;;;;;5017786;28;20439;-52
2022/06/07 06:04:10;;;;;;;12.32;7.63;;;;;;;;;;5016213;28;20034;-52
2022/06/07 06:06:35;;;;;;;16.55;8.55;;;;;;;;;;5015843;28;20025;-53
2022/06/07 06:11:45;;;;;;;12.60;8.95;;;;;;;;;;5012882;28;20024;-51
2022/06/07 06:14:10;;;;;;;12.48;9.60;;;;;;;;;;5016253;28;20132;-52
2022/06/07 06:16:37;;;;;;;14.65;9.00;;;;;;;;;;5015326;28;20467;-54
2022/06/07 06:19:02;;;;;;;11.82;8.68;;;;;;;;;;5013503;28;20025;-53
2022/06/07 06:21:28;;;;;;;10.73;7.45;;;;;;;;;;5012057;28;20036;-53
2022/06/07 06:23:56;;;;;;;11.68;7.18;;;;;;;;;;5015838;28;20025;-52
2022/06/07 06:26:21;;;;;;;12.07;7.78;;;;;;;;;;5015255;28;20052;-51
2022/06/07 06:28:46;;;;;;;14.88;7.90;;;;;;;;;;5014305;28;20060;-52
2022/06/07 06:31:12;;;;;;;12.98;7.53;;;;;;;;;;4996765;28;20393;-52
2022/06/07 06:33:38;;;;;;;15.25;6.80;;;;;;;;;;5014512;28;20506;-52
2022/06/07 06:36:04;;;;;;;16.73;8.52;;;;;;;;;;5009840;28;20037;-51
2022/06/07 06:38:30;;;;;;;14.55;8.30;;;;;;;;;;5011340;28;20021;-52
2022/06/07 06:40:56;;;;;;;13.32;7.38;;;;;;;;;;5009995;28;20125;-50
2022/06/07 06:43:21;;;;;;;15.73;8.35;;;;;;;;;;5007305;28;20026;-52
2022/06/07 06:45:46;;;;;;;15.77;8.40;;;;;;;;;;5009626;28;20039;-52
2022/06/07 06:48:12;;;;;;;13.82;8.15;;;;;;;;;;5008479;28;20284;-51
2022/06/07 06:50:37;;;;;;;14.07;8.02;;;;;;;;;;5015172;28;20083;-50
2022/06/07 06:53:02;;;;;;;15.07;8.98;;;;;;;;;;5018098;28;20022;-52
2022/06/07 06:55:27;;;;;;;13.60;7.70;;;;;;;;;;5017874;28;20472;-49
2022/06/07 06:57:53;;;;;;;12.75;8.32;;;;;;;;;;5015185;28;20091;-51
2022/06/07 07:00:18;;;;;;;13.38;8.23;;;;;;;;;;5016870;28;20052;-50
2022/06/07 07:02:44;;;;;;;14.30;8.50;;;;;;;;;;5017727;28;20798;-51
2022/06/07 07:05:13;;;;;;;15.63;8.98;;;;;;;;;;5021692;28;20636;-49
2022/06/07 07:07:38;;;;;;;15.35;8.30;;;;;;;;;;5020561;28;20017;-51
2022/06/07 07:10:04;;;;;;;11.88;7.20;;;;;;;;;;5017097;28;20028;-51
2022/06/07 07:12:31;;;;;;;14.13;7.97;;;;;;;;;;5009146;28;20472;-50
2022/06/07 07:14:56;;;;;;;13.15;8.05;;;;;;;;;;5010715;28;20080;-51
2022/06/07 07:17:22;;;;;;;14.63;8.43;;;;;;;;;;5010903;28;20034;-52
2022/06/07 07:19:47;;;;;;;15.87;8.77;;;;;;;;;;5010554;28;20033;-51
2022/06/07 07:22:12;;;;;;;14.90;9.03;;;;;;;;;;5011158;28;20291;-51
2022/06/07 07:24:37;;;;;;;14.87;8.93;;;;;;;;;;5013898;28;20100;-52
2022/06/07 07:27:03;;;;;;;14.87;8.50;;;;;;;;;;5014874;28;20299;-51
2022/06/07 07:29:28;;;;;;;11.50;8.00;;;;;;;;;;5016093;28;20286;-51
2022/06/07 07:31:53;;;;;;;12.93;7.97;;;;;;;;;;5014118;28;20536;-51
2022/06/07 07:34:19;;;;;;;12.97;8.03;;;;;;;;;;5012911;28;20296;-51
2022/06/07 07:36:45;;;;;;;13.07;7.63;;;;;;;;;;5015874;28;20287;-51
2022/06/07 07:39:10;;;;;;;11.65;7.53;;;;;;;;;;5022837;28;20164;-50
2022/06/07 07:41:36;;;;;;;10.75;6.90;;;;;;;;;;5019962;28;20108;-51
2022/06/07 07:44:02;;;;;;;13.05;8.25;;;;;;;;;;5020619;28;20044;-49
2022/06/07 07:46:28;;;;;;;11.27;7.00;;;;;;;;;;5019587;28;20025;-51
2022/06/07 07:48:54;;;;;;;10.32;6.90;;;;;;;;;;5014787;28;20079;-50
2022/06/07 07:51:22;;;;;;;9.67;7.10;;;;;;;;;;5022558;28;20484;-51
2022/06/07 07:53:47;;;;;;;12.30;6.93;;;;;;;;;;5024868;28;20338;-51
2022/06/07 07:56:13;;;;;;;13.63;8.25;;;;;;;;;;5017050;28;20087;-50
2022/06/07 07:58:38;;;;;;;10.35;6.15;;;;;;;;;;5021825;28;20068;-50
2022/06/07 08:01:14;;;;;;;11.52;5.78;;;;;;;;;;5022595;28;20025;-52
2022/06/07 08:03:39;;;;;;;12.40;6.43;;;;;;;;;;5014246;28;20071;-52
2022/06/07 08:06:06;;;;;;;7.75;4.80;;;;;;;;;;5020734;28;20033;-51
2022/06/07 08:08:31;;;;;;;8.57;4.57;;;;;;;;;;5020992;28;20022;-50
2022/06/07 08:10:56;;;;;;;5.83;4.30;;;;;;;;;;5019475;28;20029;-52
2022/06/07 08:13:22;;;;;;;7.65;4.68;;;;;;;;;;5018845;28;20288;-51
2022/06/07 08:15:47;;;;;;;8.80;4.20;;;;;;;;;;5016632;28;20041;-51
2022/06/07 08:18:12;;;;;;;7.10;4.30;;;;;;;;;;5016520;28;20056;-51
2022/06/07 08:20:38;;;;;;;7.53;4.67;;;;;;;;;;5018721;28;20276;-51
2022/06/07 08:23:04;;;;;;;5.70;3.95;;;;;;;;;;5015364;28;20296;-51
2022/06/07 08:25:29;;;;;;;6.60;4.20;;;;;;;;;;5012500;28;20065;-50
2022/06/07 08:27:54;;;;;;;7.55;4.30;;;;;;;;;;5020132;28;20049;-51
2022/06/07 08:30:20;;;;;;;6.93;3.80;;;;;;;;;;5017804;28;20125;-52
2022/06/07 08:32:45;;;;;;;6.63;3.40;;;;;;;;;;4996446;28;20292;-50
2022/06/07 08:37:58;;;;;;;6.07;3.20;;;;;;;;;;5015575;28;20064;-50
2022/06/07 08:40:33;;;;;;;5.43;3.10;;;;;;;;;;5004526;28;20120;-51
2022/06/07 08:42:58;;;;;;;4.65;2.75;;;;;;;;;;5014524;28;20119;-52
2022/06/07 08:45:31;;;;;;;5.20;3.08;;;;;;;;;;5016229;28;20029;-52
2022/06/07 08:47:58;;;;;;;4.68;2.63;;;;;;;;;;5013235;28;20060;-51
2022/06/07 08:50:24;;;;;;;4.63;2.85;;;;;;;;;;5024253;28;20029;-50
2022/06/07 08:52:51;;;;;;;5.03;2.88;;;;;;;;;;5001207;28;20010;-50
2022/06/07 08:55:20;;;;;;;4.22;2.95;;;;;;;;;;5024107;28;20049;-50
2022/06/07 08:58:05;;;;;;;4.85;2.90;;;;;;;;;;5010665;28;20033;-52
2022/06/07 09:00:31;;;;;;;4.03;2.75;;;;;;;;;;5000448;28;20076;-51
2022/06/07 09:03:15;;;;;;;4.57;2.88;;;;;;;;;;5008369;28;20064;-51
2022/06/07 09:05:41;;;;;;;5.28;2.88;;;;;;;;;;5019778;28;20238;-51
2022/06/07 09:08:08;;;;;;;10.35;5.38;;;;;;;;;;5012488;28;20591;-51
2022/06/07 09:13:21;;;;;;;10.55;5.32;;;;;;;;;;5024559;28;20088;-52
2022/06/07 09:15:55;;;;;;;7.93;3.47;;;;;;;;;;5011544;28;20036;-53
2022/06/07 09:18:23;;;;;;;8.13;4.88;;;;;;;;;;5019706;28;20030;-51
2022/06/07 09:20:50;;;;;;;9.32;5.40;;;;;;;;;;5010694;28;20021;-52
2022/06/07 09:23:18;;;;;;;11.52;5.90;;;;;;;;;;5020980;28;20021;-51
2022/06/07 09:25:48;;;;;;;7.78;4.68;;;;;;;;;;5015519;28;20034;-51
2022/06/07 09:28:14;;;;;;;;;;;;;;;;;;5011190;28;20009;-50
2022/06/07 09:30:41;;;;;;;8.88;4.55;;;;;;;;;;5018561;28;19988;-51
2022/06/07 09:33:19;;;;;;;8.68;5.55;;;;;;;;;;5002975;28;20046;-50
2022/06/07 09:35:44;;;;;;;4.82;3.50;;;;;;;;;;5014544;28;20526;-49
2022/06/07 09:38:11;;;;;;;5.03;3.23;;;;;;;;;;5012650;28;20025;-51
2022/06/07 09:40:37;;;;;;;4.05;3.03;;;;;;;;;;5018068;28;20268;-50
2022/06/07 09:43:02;;;;;;;3.95;2.90;;;;;;;;;;4975831;28;20326;-51
2022/06/07 09:45:29;;;;;;;4.82;2.90;;;;;;;;;;5008401;28;20732;-52
2022/06/07 09:47:54;;;;;;;4.65;3.13;;;;;;;;;;5007741;28;20025;-50
2022/06/07 09:50:22;;;;;;;4.78;2.88;;;;;;;;;;5014713;28;20029;-51
2022/06/07 09:52:53;;;;;;;5.93;3.15;;;;;;;;;;5009459;28;20505;-51
2022/06/07 09:55:18;;;;;;;8.27;3.05;;;;;;;;;;5017836;28;20026;-52
2022/06/07 09:58:03;;;;;;;4.60;2.97;;;;;;;;;;5013416;28;20024;-49
2022/06/07 10:00:40;;;;;;;5.50;3.10;;;;;;;;;;4992023;28;20315;-52
2022/06/07 10:03:24;;;;;;;5.00;3.20;;;;;;;;;;5012372;28;20096;-50
2022/06/07 10:05:49;;;;;;;5.63;3.17;;;;;;;;;;5012645;28;20025;-50
2022/06/07 10:08:21;;;;;;;4.90;3.03;;;;;;;;;;5014996;28;20041;-52
2022/06/07 10:11:01;;;;;;;4.05;2.97;;;;;;;;;;5014604;28;20038;-51
2022/06/07 10:13:26;;;;;;;4.47;3.30;;;;;;;;;;5019326;28;20030;-51
2022/06/07 10:16:07;;;;;;;4.00;2.80;;;;;;;;;;5022722;28;20084;-52
2022/06/07 10:18:47;;;;;;;4.93;3.10;;;;;;;;;;5016000;28;20283;-50
2022/06/07 10:21:13;;;;;;;6.07;3.20;;;;;;;;;;5012950;28;20079;-50
2022/06/07 10:23:54;;;;;;;6.93;3.03;;;;;;;;;;5016983;28;20022;-49
2022/06/07 10:26:22;;;;;;;6.50;3.25;;;;;;;;;;5012990;28;20319;-51
2022/06/07 10:28:54;;;;;;;5.10;3.30;;;;;;;;;;5005829;28;20018;-51
2022/06/07 10:31:22;;;;;;;5.32;3.38;;;;;;;;;;5016321;28;20061;-51
2022/06/07 10:33:47;;;;;;;5.40;3.60;;;;;;;;;;5014506;28;20105;-54
2022/06/07 10:36:25;;;;;;;8.83;3.70;;;;;;;;;;5014506;28;20098;-52
2022/06/07 10:39:07;;;;;;;7.15;3.47;;;;;;;;;;5012051;28;20786;-52
2022/06/07 10:41:37;;;;;;;4.32;3.35;;;;;;;;;;4981067;28;20068;-51
2022/06/07 10:44:11;;;;;;;4.97;3.20;;;;;;;;;;4995213;28;20045;-50
2022/06/07 10:46:36;;;;;;;4.30;3.38;;;;;;;;;;5000649;28;20108;-52
2022/06/07 10:49:25;;;;;;;4.90;3.58;;;;;;;;;;5017055;28;20108;-51
2022/06/07 10:54:36;;;;;;;5.15;3.60;;;;;;;;;;5021950;28;20068;-50
2022/06/07 10:57:04;;;;;;;4.47;3.00;;;;;;;;;;5021313;28;20049;-50
2022/06/07 10:59:30;;;;;;;4.03;3.03;;;;;;;;;;5013028;28;20330;-50
2022/06/07 11:01:57;;;;;;;5.25;3.42;;;;;;;;;;5019437;28;20041;-52
2022/06/07 11:10:22;;;;;;;5.47;3.38;;;;;;;;;;5019454;28;20086;-51
2022/06/07 11:12:55;;;;;;;5.93;3.95;;;;;;;;;;5009241;28;20052;-52
2022/06/07 11:15:21;;;;;;;10.57;3.85;;;;;;;;;;5018574;28;20128;-53
2022/06/07 11:17:46;;;;;;;5.95;3.70;;;;;;;;;;5018037;28;20481;-52
2022/06/07 11:20:32;;;;;;;4.73;3.43;;;;;;;;;;5018918;28;20036;-51
2022/06/07 11:22:57;;;;;;;6.65;3.47;;;;;;;;;;5017259;28;20299;-52
2022/06/07 11:25:36;;;;;;;7.10;3.90;;;;;;;;;;5011179;28;20041;-53
2022/06/07 11:28:15;;;;;;;6.70;3.53;;;;;;;;;;5010666;28;20280;-53
2022/06/07 11:30:41;;;;;;;5.97;3.55;;;;;;;;;;5017026;28;20030;-52
2022/06/07 11:33:25;;;;;;;5.35;3.65;;;;;;;;;;5012329;28;20111;-51
2022/06/07 11:35:53;;;;;;;5.82;3.90;;;;;;;;;;5016155;28;20045;-52
2022/06/07 11:38:19;;;;;;;6.82;3.83;;;;;;;;;;4986489;28;20061;-50
2022/06/07 11:40:44;;;;;;;8.75;3.80;;;;;;;;;;5019170;28;20615;-50
2022/06/07 11:43:28;;;;;;;5.25;3.33;;;;;;;;;;5015550;28;20400;-53
2022/06/07 11:45:54;;;;;;;8.60;4.00;;;;;;;;;;5015628;28;20052;-51
2022/06/07 11:48:23;;;;;;;5.10;3.20;;;;;;;;;;5015940;28;20128;-51
2022/06/07 11:50:54;;;;;;;5.45;3.58;;;;;;;;;;5010143;28;20029;-51
2022/06/07 11:53:31;;;;;;;5.25;3.47;;;;;;;;;;5013986;28;20567;-53
2022/06/07 11:56:15;;;;;;;8.68;3.70;;;;;;;;;;5006857;28;20029;-52
2022/06/07 11:58:49;;;;;;;5.47;3.30;;;;;;;;;;5019327;28;20040;-51
2022/06/07 12:01:33;;;;;;;6.32;3.45;;;;;;;;;;5014941;28;20663;-50
2022/06/07 12:04:06;;;;;;;5.63;3.30;;;;;;;;;;5018603;28;20025;-51
2022/06/07 12:06:31;;;;;;;6.20;3.13;;;;;;;;;;5020677;28;20021;-51
2022/06/07 12:08:58;;;;;;;5.53;3.50;;;;;;;;;;5000535;28;20032;-51
2022/06/07 12:11:32;;;;;;;4.78;3.10;;;;;;;;;;5017375;28;20279;-50
2022/06/07 12:14:17;;;;;;;3.88;2.80;;;;;;;;;;5017272;28;20066;-51
2022/06/07 12:16:59;;;;;;;4.75;3.08;;;;;;;;;;5016728;28;20433;-51
2022/06/07 12:19:30;;;;;;;4.43;3.20;;;;;;;;;;5021331;28;20104;-51
2022/06/07 12:22:15;;;;;;;3.72;2.60;;;;;;;;;;5017253;28;20029;-53
2022/06/07 12:24:42;;;;;;;5.22;2.40;;;;;;;;;;5016539;28;20041;-50
2022/06/07 12:27:35;;;;;;;5.15;2.88;;;;;;;;;;5022296;28;20496;-52
2022/06/07 12:30:03;;;;;;;3.92;2.78;;;;;;;;;;5015339;28;20037;-51
2022/06/07 12:32:31;;;;;;;4.05;3.00;;;;;;;;;;5015197;28;20053;-52
2022/06/07 12:35:26;;;;;;;5.20;3.10;;;;;;;;;;5022627;28;20053;-52
2022/06/07 12:37:56;;;;;;;6.13;3.13;;;;;;;;;;5008263;28;20086;-53
2022/06/07 12:40:36;;;;;;;4.57;2.90;;;;;;;;;;5011325;28;20033;-51
2022/06/07 12:43:01;;;;;;;3.40;2.80;;;;;;;;;;5001744;28;20095;-52
2022/06/07 12:45:33;;;;;;;4.60;3.00;;;;;;;;;;5017215;28;20030;-49
2022/06/07 12:48:01;;;;;;;5.13;2.60;;;;;;;;;;5017075;28;20421;-52
2022/06/07 12:50:30;;;;;;;4.47;2.80;;;;;;;;;;5019761;28;20079;-52
2022/06/07 12:52:56;;;;;;;4.45;2.42;;;;;;;;;;5022643;28;20025;-52
2022/06/07 12:55:24;;;;;;;4.97;2.65;;;;;;;;;;5013450;28;20423;-51
2022/06/07 12:57:56;;;;;;;3.97;2.42;;;;;;;;;;5024082;28;20492;-51
2022/06/07 13:00:23;;;;;;;6.95;2.42;;;;;;;;;;5020394;28;20104;-53
2022/06/07 13:02:50;;;;;;;5.57;2.63;;;;;;;;;;5000982;28;20021;-53
2022/06/07 13:05:17;;;;;;;3.70;2.60;;;;;;;;;;5012759;28;20036;-50
2022/06/07 13:07:47;;;;;;;3.35;2.25;;;;;;;;;;5022090;28;20051;-50
2022/06/07 13:10:13;;;;;;;3.03;2.30;;;;;;;;;;5002940;28;20026;-50
2022/06/07 13:12:43;;;;;;;3.92;2.72;;;;;;;;;;4998196;28;20044;-51
2022/06/07 13:15:14;;;;;;;4.00;2.42;;;;;;;;;;4995180;28;20417;-51
2022/06/07 13:17:40;;;;;;;5.00;2.28;;;;;;;;;;5019069;28;20068;-50
2022/06/07 13:20:06;;;;;;;3.05;2.58;;;;;;;;;;5010548;28;20088;-52
2022/06/07 13:22:36;;;;;;;5.28;2.60;;;;;;;;;;5015281;28;20022;-50
2022/06/07 13:25:02;;;;;;;;;;;;;;;;;;5012340;28;20021;-52
2022/06/07 13:27:32;;;;;;;3.95;2.28;;;;;;;;;;5020933;28;19916;-51
2022/06/07 13:29:57;;;;;;;6.10;2.45;;;;;;;;;;5012274;28;20038;-51
2022/06/07 13:32:23;;;;;;;4.68;2.45;;;;;;;;;;5004625;28;20096;-51
2022/06/07 13:34:50;;;;;;;7.32;2.40;;;;;;;;;;5008101;28;20048;-51
2022/06/07 13:37:19;;;;;;;2.80;1.90;;;;;;;;;;5011261;28;20018;-49
2022/06/07 13:40:01;;;;;;;3.25;2.10;;;;;;;;;;5008813;28;20036;-49
2022/06/07 13:42:33;;;;;;;4.20;2.03;;;;;;;;;;5016314;28;20029;-53
2022/06/07 13:45:11;;;;;;;3.03;2.03;;;;;;;;;;5012829;28;20581;-49
2022/06/07 13:47:37;;;;;;;3.20;2.05;;;;;;;;;;5014602;28;20022;-51
2022/06/07 13:53:30;;;;;;;4.43;2.10;;;;;;;;;;5026982;28;20035;-52
2022/06/07 13:55:50;;;;;;;3.08;2.00;;;;;;;;;;5008873;28;20083;-52
2022/06/07 13:58:20;;;;;;;3.85;2.40;;;;;;;;;;5016640;28;20045;-51
2022/06/07 14:00:45;;;;;;;4.30;1.90;;;;;;;;;;5013649;28;20575;-51
2022/06/07 14:03:18;;;;;;;4.05;1.80;;;;;;;;;;5016039;28;20056;-52
2022/06/07 14:05:44;;;;;;;3.95;1.95;;;;;;;;;;5015558;28;20017;-51
2022/06/07 14:08:13;;;;;;;2.97;2.10;;;;;;;;;;5014014;28;20113;-51
2022/06/07 14:10:38;;;;;;;4.43;2.17;;;;;;;;;;5023588;28;20783;-54
2022/06/07 14:13:04;;;;;;;2.70;1.73;;;;;;;;;;5009681;28;20045;-51
2022/06/07 14:15:29;;;;;;;2.58;1.88;;;;;;;;;;5021999;28;20033;-51
2022/06/07 14:17:54;;;;;;;2.50;1.80;;;;;;;;;;4994048;28;20018;-51
2022/06/07 14:20:20;;;;;;;2.53;2.00;;;;;;;;;;5018583;28;20029;-52
2022/06/07 14:22:46;;;;;;;3.08;2.10;;;;;;;;;;5020566;28;20496;-50
2022/06/07 14:25:15;;;;;;;2.97;1.73;;;;;;;;;;5021093;28;20477;-50
2022/06/07 14:27:40;;;;;;;3.72;2.10;;;;;;;;;;5013863;28;20298;-50
2022/06/07 14:30:05;;;;;;;3.77;2.20;;;;;;;;;;5019222;28;20481;-50
2022/06/07 14:32:31;;;;;;;3.67;2.05;;;;;;;;;;5017498;28;20292;-51
2022/06/07 14:34:57;;;;;;;3.08;1.90;;;;;;;;;;4995987;28;21121;-52
2022/06/07 14:37:23;;;;;;;3.60;2.08;;;;;;;;;;5019172;28;20079;-53
2022/06/07 14:39:48;;;;;;;5.18;1.90;;;;;;;;;;5009172;28;20052;-50
2022/06/07 14:42:13;;;;;;;2.78;1.70;;;;;;;;;;5012093;28;20022;-50
2022/06/07 14:44:39;;;;;;;3.38;1.85;;;;;;;;;;5021600;28;20459;-49
2022/06/07 14:47:04;;;;;;;3.45;1.83;;;;;;;;;;5020324;28;20570;-51
2022/06/07 14:49:29;;;;;;;4.43;1.80;;;;;;;;;;5012324;28;20025;-51
2022/06/07 14:51:56;;;;;;;3.45;2.00;;;;;;;;;;5018378;28;20416;-52
2022/06/07 14:54:22;;;;;;;3.05;2.05;;;;;;;;;;5025826;28;20017;-51
2022/06/07 14:56:48;;;;;;;3.28;1.88;;;;;;;;;;5016856;28;20021;-51
2022/06/07 14:59:13;;;;;;;2.50;1.80;;;;;;;;;;5010348;28;20508;-52
2022/06/07 15:01:40;;;;;;;3.53;2.17;;;;;;;;;;5017841;28;20025;-52
2022/06/07 15:04:06;;;;;;;3.28;2.00;;;;;;;;;;5007393;28;20033;-52
2022/06/07 15:06:32;;;;;;;4.20;2.00;;;;;;;;;;5017658;28;20105;-51
2022/06/07 15:08:57;;;;;;;2.58;1.80;;;;;;;;;;5002601;28;20783;-52
2022/06/07 15:11:30;;;;;;;3.67;1.77;;;;;;;;;;5010956;28;20013;-53
2022/06/07 15:13:55;;;;;;;3.10;2.00;;;;;;;;;;5009657;28;20096;-50